Joppa, Illinois
Current Conditions -  °F | °C
As of 10:15 AM on Saturday 22 Nov 2014 (Local Time) from KM30 Reporting Station
Drizzle Drizzle  
Wind Chill: 57°   Ceiling: 5000
Heat Index: 57°   Visibility: 10mi
Dew Point: 44°   Wind: 9mph
Humidity: 62%   Direction: 180°S
Pressure: 30.23"   Gusts: NA
Location:  37.21°N, 88.84°W
Report Text: KM30 221615Z AUTO 18008KT 10SM -DZ OVC050 14/07 A3023 RMK AO2 T01370065
Loading
Personal Weather Stations






























Interactive Weather Map New forecast layout! Learn more

10-Day Weather Forecast

Advertisements
Track Severe Weather on mobile